createdAt,value
2023-02-02T00:04:02.551Z,9.10
2023-02-02T00:14:01.474Z,9.10
2023-02-02T00:24:01.221Z,9.10
2023-02-02T00:34:00.391Z,9.10
2023-02-02T00:44:17.530Z,9.00
2023-02-02T00:54:16.505Z,9.00
2023-02-02T01:04:15.354Z,8.90
2023-02-02T01:14:14.288Z,9.00
2023-02-02T01:24:13.242Z,9.00
2023-02-02T01:34:12.286Z,8.90
2023-02-02T01:44:11.335Z,8.90
2023-02-02T01:54:10.450Z,8.90
2023-02-02T02:04:09.372Z,8.80
2023-02-02T02:14:27.000Z,8.90
2023-02-02T02:24:58.458Z,8.90
2023-02-02T02:34:58.666Z,8.90
2023-02-02T02:44:57.421Z,8.70
2023-02-02T02:54:56.865Z,8.70
2023-02-02T03:04:55.604Z,8.60
2023-02-02T03:14:54.594Z,8.50
2023-02-02T03:24:53.864Z,8.50
2023-02-02T03:34:52.446Z,8.40
2023-02-02T03:44:51.479Z,8.30
2023-02-02T03:54:50.531Z,8.30
2023-02-02T04:04:49.582Z,8.30
2023-02-02T04:14:48.506Z,8.30
2023-02-02T04:24:50.538Z,8.20
2023-02-02T04:34:49.477Z,8.20
2023-02-02T04:44:48.435Z,8.20
2023-02-02T04:54:47.391Z,8.30
2023-02-02T05:04:46.607Z,8.20
2023-02-02T05:14:45.458Z,8.10
2023-02-02T05:24:44.419Z,8.10
2023-02-02T05:34:43.456Z,8.20
2023-02-02T05:44:42.514Z,8.20
2023-02-02T05:54:41.547Z,8.10
2023-02-02T06:04:40.401Z,8.20
2023-02-02T06:14:39.362Z,8.30
2023-02-02T06:24:38.386Z,8.40
2023-02-02T06:34:37.521Z,8.40
2023-02-02T06:44:36.581Z,8.40
2023-02-02T06:54:35.433Z,8.40
2023-02-02T07:04:37.535Z,8.30
2023-02-02T07:14:37.484Z,8.20
2023-02-02T07:24:37.771Z,8.20
2023-02-02T07:34:36.517Z,8.20
2023-02-02T07:44:35.552Z,8.20
2023-02-02T07:54:34.726Z,8.20
2023-02-02T08:04:33.959Z,8.30
2023-02-02T08:14:32.718Z,8.30
2023-02-02T08:24:31.438Z,8.20
2023-02-02T08:34:30.909Z,8.20
2023-02-02T08:44:44.922Z,8.20
2023-02-02T08:54:30.541Z,8.20
2023-02-02T09:04:29.473Z,8.20
2023-02-02T09:14:28.533Z,8.20
2023-02-02T09:24:27.655Z,8.30
2023-02-02T09:34:26.530Z,8.30
2023-02-02T09:44:25.633Z,8.30
2023-02-02T09:54:24.495Z,8.30
2023-02-02T10:04:23.512Z,8.30
2023-02-02T10:14:22.817Z,8.40
2023-02-02T10:24:20.710Z,8.50
2023-02-02T10:34:19.754Z,8.70
2023-02-02T10:44:18.491Z,8.80
2023-02-02T10:54:17.649Z,8.90
2023-02-02T11:04:34.897Z,9.00
2023-02-02T11:14:39.186Z,9.20
2023-02-02T11:24:36.327Z,9.20
2023-02-02T11:34:35.741Z,9.30
2023-02-02T11:44:35.465Z,9.30
2023-02-02T11:54:36.465Z,9.30
2023-02-02T12:04:35.868Z,9.40
2023-02-02T12:14:34.655Z,9.40
2023-02-02T12:24:33.650Z,9.40
2023-02-02T12:34:32.716Z,9.60
2023-02-02T12:44:31.852Z,9.80
2023-02-02T12:54:47.248Z,9.90
2023-02-02T13:04:36.797Z,9.90
2023-02-02T13:14:35.663Z,10.00
2023-02-02T13:24:34.597Z,9.90
2023-02-02T13:34:33.628Z,9.90
2023-02-02T13:44:32.854Z,9.90
2023-02-02T13:54:31.881Z,9.90
2023-02-02T14:04:30.776Z,9.70
2023-02-02T14:14:32.583Z,9.50
2023-02-02T14:24:31.849Z,9.30
2023-02-02T14:34:30.917Z,9.20
2023-02-02T14:44:30.557Z,9.30
2023-02-02T14:54:29.805Z,9.40
2023-02-02T15:04:29.003Z,9.50
2023-02-02T15:14:27.897Z,9.60
2023-02-02T15:24:26.642Z,9.80
2023-02-02T15:34:25.890Z,9.90
2023-02-02T15:44:25.436Z,9.80
2023-02-02T15:54:24.696Z,9.60
2023-02-02T16:05:29.924Z,9.50
2023-02-02T16:15:28.939Z,9.50
2023-02-02T16:25:28.168Z,9.20
2023-02-02T16:35:27.883Z,9.10
2023-02-02T16:45:27.197Z,9.00
2023-02-02T16:55:39.826Z,9.00
2023-02-02T17:05:29.899Z,8.90
2023-02-02T17:15:29.434Z,8.90
2023-02-02T17:25:29.756Z,8.90
2023-02-02T17:35:39.869Z,8.80
2023-02-02T17:45:30.613Z,8.80
2023-02-02T17:55:30.714Z,8.90
2023-02-02T18:05:29.734Z,8.90
2023-02-02T18:15:28.956Z,8.90
2023-02-02T18:25:28.641Z,8.90
2023-02-02T18:35:28.349Z,8.80
2023-02-02T18:45:28.594Z,8.80
2023-02-02T18:55:28.073Z,8.90
2023-02-02T19:05:44.834Z,8.90
2023-02-02T19:15:43.946Z,8.90
2023-02-02T19:25:42.981Z,9.00
2023-02-02T19:35:42.039Z,9.00
2023-02-02T19:45:41.080Z,9.10
2023-02-02T19:55:39.970Z,9.20
2023-02-02T20:05:38.980Z,9.20
2023-02-02T20:15:38.502Z,9.30
2023-02-02T20:25:38.182Z,9.40
2023-02-02T20:35:37.055Z,9.40
2023-02-02T20:45:36.041Z,9.40
2023-02-02T20:55:36.524Z,9.30
2023-02-02T21:05:35.901Z,9.40
2023-02-02T21:15:34.945Z,9.40
2023-02-02T21:25:33.719Z,9.50
2023-02-02T21:35:32.851Z,9.50
2023-02-02T21:45:32.185Z,9.40
2023-02-02T21:55:31.143Z,9.50
2023-02-02T22:05:29.961Z,9.50
2023-02-02T22:15:28.992Z,9.60
2023-02-02T22:25:28.174Z,9.60
2023-02-02T22:35:26.934Z,9.60
2023-02-02T22:45:26.294Z,9.70
2023-02-02T22:55:25.009Z,9.70
2023-02-02T23:05:24.151Z,9.80
2023-02-02T23:15:23.090Z,9.70
2023-02-02T23:25:21.988Z,9.80
2023-02-02T23:35:21.219Z,9.80
2023-02-02T23:45:19.946Z,9.80
2023-02-02T23:55:19.090Z,9.80
